createdAt,value
2022-11-16T00:00:22.432Z,56.15
2022-11-16T00:01:26.825Z,60.15
2022-11-16T00:02:28.501Z,57.63
2022-11-16T00:03:31.580Z,61.30
2022-11-16T00:04:33.337Z,60.53
2022-11-16T00:05:35.028Z,62.67
2022-11-16T00:06:36.667Z,58.75
2022-11-16T00:07:38.482Z,62.53
2022-11-16T00:08:43.216Z,65.22
2022-11-16T00:09:44.905Z,64.53
2022-11-16T00:10:46.572Z,64.28
2022-11-16T00:11:54.189Z,65.47
2022-11-16T00:12:55.880Z,70.97
2022-11-16T00:13:57.558Z,60.40
2022-11-16T00:14:59.230Z,62.17
2022-11-16T00:16:00.998Z,60.67
2022-11-16T00:17:03.371Z,56.25
2022-11-16T00:18:05.050Z,56.22
2022-11-16T00:19:07.874Z,60.13
2022-11-16T00:20:10.147Z,61.85
2022-11-16T00:21:11.868Z,69.65
2022-11-16T00:22:13.515Z,61.95
2022-11-16T00:23:15.161Z,66.43
2022-11-16T00:24:18.580Z,69.55
2022-11-16T00:25:20.255Z,66.07
2022-11-16T00:26:24.578Z,57.85
2022-11-16T00:27:26.272Z,55.92
2022-11-16T00:28:28.608Z,51.78
2022-11-16T00:29:30.321Z,55.03
2022-11-16T00:30:31.981Z,61.08
2022-11-16T00:31:33.632Z,59.78
2022-11-16T00:32:35.312Z,58.55
2022-11-16T00:33:37.392Z,53.50
2022-11-16T00:34:39.868Z,54.65
2022-11-16T00:35:41.990Z,56.60
2022-11-16T00:36:44.446Z,60.72
2022-11-16T00:37:46.173Z,64.30
2022-11-16T00:38:47.928Z,64.78
2022-11-16T00:39:49.588Z,61.55
2022-11-16T00:40:51.264Z,64.60
2022-11-16T00:41:52.984Z,62.67
2022-11-16T00:42:54.622Z,59.22
2022-11-16T00:43:56.577Z,55.22
2022-11-16T00:44:58.248Z,50.08
2022-11-16T00:45:59.933Z,52.47
2022-11-16T00:47:01.616Z,48.10
2022-11-16T00:48:03.361Z,54.05
2022-11-16T00:49:05.818Z,49.75
2022-11-16T00:50:07.734Z,52.78
2022-11-16T00:51:09.475Z,54.22
2022-11-16T00:52:11.128Z,56.88
2022-11-16T00:53:14.451Z,51.13
2022-11-16T00:54:16.143Z,50.20
2022-11-16T00:55:17.932Z,49.10
2022-11-16T00:56:19.586Z,49.78
2022-11-16T00:57:21.302Z,51.88
2022-11-16T00:58:23.284Z,50.95
2022-11-16T00:59:24.973Z,49.85
2022-11-16T01:00:26.949Z,49.33
2022-11-16T01:01:29.000Z,48.75
2022-11-16T01:02:30.735Z,55.22
2022-11-16T01:03:33.031Z,50.80
2022-11-16T01:04:34.737Z,52.20
2022-11-16T01:05:36.665Z,55.33
2022-11-16T01:06:38.312Z,51.00
2022-11-16T01:07:41.240Z,49.83
2022-11-16T01:08:44.159Z,48.55
2022-11-16T01:09:45.842Z,52.17
2022-11-16T01:10:47.504Z,57.53
2022-11-16T01:12:07.707Z,60.20
2022-11-16T01:13:10.956Z,55.53
2022-11-16T01:14:12.705Z,53.42
2022-11-16T01:15:14.591Z,49.53
2022-11-16T01:16:18.088Z,51.40
2022-11-16T01:17:19.721Z,53.92
2022-11-16T01:18:21.362Z,57.20
2022-11-16T01:19:23.118Z,59.40
2022-11-16T01:20:27.500Z,59.13
2022-11-16T01:21:29.187Z,52.85
2022-11-16T01:22:30.905Z,55.33
2022-11-16T01:23:32.647Z,49.80
2022-11-16T01:24:34.474Z,56.03
2022-11-16T01:25:36.141Z,52.83
2022-11-16T01:26:37.908Z,52.58
2022-11-16T01:27:40.223Z,53.63
2022-11-16T01:28:42.066Z,60.28
2022-11-16T01:29:43.963Z,67.05
2022-11-16T01:30:48.915Z,59.47
2022-11-16T01:31:50.670Z,59.05
2022-11-16T01:32:52.381Z,59.22
2022-11-16T01:33:54.920Z,58.75
2022-11-16T01:34:56.579Z,59.05
2022-11-16T01:35:58.355Z,57.78
2022-11-16T01:37:00.011Z,54.05
2022-11-16T01:38:01.695Z,55.58
2022-11-16T01:39:05.613Z,55.72
2022-11-16T01:40:08.173Z,57.50
2022-11-16T01:41:14.351Z,58.83
2022-11-16T01:42:21.676Z,55.28
2022-11-16T01:43:25.649Z,59.00
2022-11-16T01:44:33.341Z,54.72
2022-11-16T01:45:39.584Z,56.58
2022-11-16T01:46:42.300Z,67.25
2022-11-16T01:47:44.392Z,70.40
2022-11-16T01:48:47.122Z,70.30
2022-11-16T01:50:09.105Z,57.92
2022-11-16T01:51:11.047Z,50.90
2022-11-16T01:52:17.176Z,56.67
2022-11-16T01:53:19.311Z,47.45
2022-11-16T01:54:21.173Z,49.05
2022-11-16T01:55:23.797Z,43.85
2022-11-16T01:56:26.218Z,47.65
2022-11-16T01:57:41.026Z,48.92
2022-11-16T01:58:43.049Z,44.83
2022-11-16T01:59:48.055Z,49.10
2022-11-16T02:00:49.917Z,51.35
2022-11-16T02:01:51.906Z,48.88
2022-11-16T02:02:53.857Z,48.15
2022-11-16T02:03:55.635Z,51.67
2022-11-16T02:04:58.712Z,52.55
2022-11-16T02:06:15.165Z,60.17
2022-11-16T02:08:03.172Z,52.60
2022-11-16T02:09:41.520Z,51.10
2022-11-16T02:11:21.447Z,49.80
2022-11-16T02:12:57.266Z,55.58
2022-11-16T02:14:16.457Z,55.95
2022-11-16T02:15:42.215Z,58.83
2022-11-16T02:17:01.781Z,54.92
2022-11-16T02:18:18.277Z,50.97
2022-11-16T02:19:53.406Z,53.33
2022-11-16T02:21:19.420Z,53.45
2022-11-16T02:22:27.395Z,46.92
2022-11-16T02:23:31.954Z,55.15
2022-11-16T02:24:39.666Z,52.03
2022-11-16T02:26:06.285Z,57.58
2022-11-16T02:27:10.917Z,52.30
2022-11-16T02:28:44.451Z,55.67
2022-11-16T02:29:50.250Z,54.20
2022-11-16T02:30:55.054Z,49.65
2022-11-16T02:32:06.150Z,50.33
2022-11-16T02:33:12.333Z,54.97
2022-11-16T02:34:18.077Z,59.58
2022-11-16T02:35:22.912Z,54.53
2022-11-16T02:36:25.839Z,55.25
2022-11-16T02:37:31.887Z,50.42
2022-11-16T02:38:38.720Z,50.10
2022-11-16T02:39:43.358Z,52.80
2022-11-16T02:40:50.748Z,60.05
2022-11-16T02:41:54.631Z,58.40
2022-11-16T02:43:11.761Z,63.45
2022-11-16T02:44:19.644Z,56.45
2022-11-16T02:45:26.338Z,51.90
2022-11-16T02:46:36.800Z,49.13
2022-11-16T02:47:41.506Z,58.17
2022-11-16T02:48:48.129Z,49.95
2022-11-16T02:49:56.843Z,54.50
2022-11-16T02:50:58.581Z,56.25
2022-11-16T02:52:01.086Z,51.97
2022-11-16T02:53:03.583Z,59.42
2022-11-16T02:54:12.975Z,63.95
2022-11-16T02:55:14.922Z,59.47
2022-11-16T02:56:16.715Z,58.67
2022-11-16T02:57:26.995Z,66.90
2022-11-16T02:58:29.626Z,55.40
2022-11-16T02:59:36.870Z,61.25
2022-11-16T03:00:52.165Z,68.30
2022-11-16T03:02:08.137Z,65.72
2022-11-16T03:03:35.130Z,59.97
2022-11-16T03:04:43.621Z,56.90
2022-11-16T03:05:51.257Z,56.13
2022-11-16T03:06:56.496Z,55.30
2022-11-16T03:08:19.465Z,60.17
2022-11-16T03:09:27.945Z,50.35
2022-11-16T03:10:49.252Z,50.78
2022-11-16T03:12:00.729Z,58.03
2022-11-16T03:13:03.822Z,52.00
2022-11-16T03:14:15.106Z,56.25
2022-11-16T03:16:50.593Z,47.13
2022-11-16T03:17:52.871Z,48.35
2022-11-16T03:18:56.962Z,48.85
2022-11-16T03:20:07.780Z,48.38
2022-11-16T03:21:28.635Z,48.35
2022-11-16T03:22:39.523Z,46.83
2022-11-16T03:23:41.868Z,45.00
2022-11-16T03:24:43.657Z,40.70
2022-11-16T03:25:50.787Z,37.92
2022-11-16T03:27:05.649Z,40.40
2022-11-16T03:28:20.200Z,46.03
2022-11-16T03:29:30.885Z,36.15
2022-11-16T03:30:41.329Z,41.10
2022-11-16T03:31:50.669Z,43.70
2022-11-16T03:33:08.377Z,41.50
2022-11-16T03:34:16.544Z,46.25
2022-11-16T03:35:23.328Z,47.53
2022-11-16T03:36:40.849Z,47.90
2022-11-16T03:37:46.104Z,42.53
2022-11-16T03:38:50.894Z,46.97
2022-11-16T03:39:53.988Z,50.63
2022-11-16T03:41:03.204Z,51.70
2022-11-16T03:42:10.833Z,50.90
2022-11-16T03:43:14.493Z,48.30
2022-11-16T03:44:18.926Z,45.13
2022-11-16T03:45:21.143Z,43.95
2022-11-16T03:46:22.889Z,42.13
2022-11-16T03:47:24.582Z,45.50
2022-11-16T03:48:32.269Z,46.97
2022-11-16T03:49:34.191Z,45.75
2022-11-16T03:50:35.907Z,47.95
2022-11-16T03:51:37.918Z,52.72
2022-11-16T03:52:39.636Z,55.95
2022-11-16T03:53:41.329Z,60.58
2022-11-16T03:54:43.148Z,83.45
2022-11-16T03:55:49.584Z,84.22
2022-11-16T03:56:51.775Z,77.40
2022-11-16T03:57:53.424Z,83.70
2022-11-16T03:58:55.285Z,87.32
2022-11-16T03:59:57.137Z,89.78
2022-11-16T04:00:58.931Z,78.32
2022-11-16T04:02:00.653Z,78.28
2022-11-16T04:03:02.371Z,77.70
2022-11-16T04:04:04.133Z,70.75
2022-11-16T04:05:24.323Z,72.32
2022-11-16T04:06:44.394Z,58.90
2022-11-16T04:08:06.532Z,58.03
2022-11-16T04:09:30.039Z,58.28
2022-11-16T04:10:49.980Z,57.92
2022-11-16T04:12:09.965Z,55.28
2022-11-16T04:13:33.841Z,61.85
2022-11-16T04:14:54.130Z,65.28
2022-11-16T04:16:14.057Z,60.97
2022-11-16T04:17:36.492Z,55.85
2022-11-16T04:18:57.069Z,56.70
2022-11-16T04:20:17.119Z,56.85
2022-11-16T04:22:09.690Z,49.80
2022-11-16T04:23:33.169Z,53.35
2022-11-16T04:24:38.474Z,61.97
2022-11-16T04:25:41.937Z,53.28
2022-11-16T04:27:06.864Z,58.33
2022-11-16T04:28:14.756Z,54.22
2022-11-16T04:29:16.687Z,54.72
2022-11-16T04:30:18.520Z,50.22
2022-11-16T04:31:38.945Z,49.15
2022-11-16T04:32:59.542Z,54.83
2022-11-16T04:34:20.097Z,47.65
2022-11-16T04:35:33.621Z,52.85
2022-11-16T04:36:54.036Z,57.55
2022-11-16T04:37:58.426Z,60.10
2022-11-16T04:39:00.284Z,59.90
2022-11-16T04:40:02.193Z,53.80
2022-11-16T04:41:03.860Z,46.03
2022-11-16T04:42:14.773Z,47.85
2022-11-16T04:43:16.521Z,50.33
2022-11-16T04:44:18.915Z,47.22
2022-11-16T04:45:40.328Z,46.75
2022-11-16T04:47:00.839Z,47.20
2022-11-16T04:48:02.951Z,53.25
2022-11-16T04:49:04.648Z,69.82
2022-11-16T04:50:06.595Z,47.90
2022-11-16T04:51:08.270Z,46.13
2022-11-16T04:52:10.272Z,45.00
2022-11-16T04:53:12.563Z,46.70
2022-11-16T04:54:14.313Z,50.15
2022-11-16T04:55:15.989Z,46.30
2022-11-16T04:56:17.699Z,57.65
2022-11-16T04:57:19.346Z,55.03
2022-11-16T04:58:21.046Z,52.78
2022-11-16T04:59:22.769Z,53.72
2022-11-16T05:00:24.551Z,49.75
2022-11-16T05:01:44.944Z,43.85
2022-11-16T05:02:46.669Z,48.13
2022-11-16T05:03:48.331Z,45.70
2022-11-16T05:04:50.055Z,51.78
2022-11-16T05:05:51.751Z,45.20
2022-11-16T05:06:53.628Z,45.47
2022-11-16T05:07:55.430Z,43.03
2022-11-16T05:08:57.073Z,47.58
2022-11-16T05:09:58.765Z,56.38
2022-11-16T05:11:00.423Z,52.40
2022-11-16T05:12:02.060Z,50.92
2022-11-16T05:13:03.728Z,58.72
2022-11-16T05:14:06.376Z,56.03
2022-11-16T05:15:09.183Z,60.00
2022-11-16T05:16:10.833Z,58.17
2022-11-16T05:17:13.552Z,65.47
2022-11-16T05:18:15.237Z,57.75
2022-11-16T05:19:35.144Z,64.30
2022-11-16T05:20:55.007Z,56.25
2022-11-16T05:21:56.708Z,48.90
2022-11-16T05:22:58.968Z,62.05
2022-11-16T05:24:18.887Z,54.55
2022-11-16T05:25:20.609Z,57.38
2022-11-16T05:26:22.290Z,53.85
2022-11-16T05:27:25.523Z,54.35
2022-11-16T05:28:27.233Z,53.08
2022-11-16T05:29:29.029Z,58.20
2022-11-16T05:30:30.763Z,60.47
2022-11-16T05:31:36.349Z,61.60
2022-11-16T05:32:41.893Z,58.22
2022-11-16T05:33:43.987Z,59.88
2022-11-16T05:34:46.039Z,62.95
2022-11-16T05:35:51.024Z,60.88
2022-11-16T05:36:53.128Z,63.85
2022-11-16T05:37:54.850Z,61.38
2022-11-16T05:38:56.627Z,64.72
2022-11-16T05:39:58.267Z,47.72
2022-11-16T05:40:59.956Z,63.40
2022-11-16T05:42:02.052Z,60.30
2022-11-16T05:43:03.699Z,58.92
2022-11-16T05:44:05.458Z,61.90
2022-11-16T05:45:07.566Z,58.55
2022-11-16T05:46:09.947Z,56.13
2022-11-16T05:47:11.581Z,57.22
2022-11-16T05:48:13.256Z,54.75
2022-11-16T05:49:16.055Z,59.35
2022-11-16T05:50:17.839Z,61.50
2022-11-16T05:51:19.501Z,62.25
2022-11-16T05:52:21.149Z,60.78
2022-11-16T05:53:22.826Z,60.08
2022-11-16T05:54:26.221Z,66.72
2022-11-16T05:55:27.958Z,62.92
2022-11-16T05:56:30.302Z,72.07
2022-11-16T05:57:32.038Z,77.03
2022-11-16T05:58:33.970Z,77.13
2022-11-16T05:59:36.135Z,68.25
2022-11-16T06:00:37.791Z,76.57
2022-11-16T06:01:39.985Z,66.22
2022-11-16T06:02:41.903Z,67.30
2022-11-16T06:03:43.723Z,61.53
2022-11-16T06:04:45.377Z,60.78
2022-11-16T06:05:47.074Z,71.30
2022-11-16T06:06:48.755Z,66.90
2022-11-16T06:07:50.417Z,66.30
2022-11-16T06:08:52.135Z,64.72
2022-11-16T06:09:53.816Z,60.90
2022-11-16T06:10:55.925Z,64.57
2022-11-16T06:11:57.628Z,68.60
2022-11-16T06:12:59.282Z,65.50
2022-11-16T06:14:00.932Z,69.68
2022-11-16T06:15:02.624Z,65.10
2022-11-16T06:16:05.188Z,71.20
2022-11-16T06:17:06.837Z,64.28
2022-11-16T06:18:09.193Z,69.03
2022-11-16T06:19:10.866Z,66.13
2022-11-16T06:20:12.641Z,62.42
2022-11-16T06:21:16.579Z,64.95
2022-11-16T06:22:18.261Z,63.90
2022-11-16T06:23:20.015Z,60.00
2022-11-16T06:24:21.769Z,58.58
2022-11-16T06:25:23.475Z,56.45
2022-11-16T06:26:25.167Z,62.40
2022-11-16T06:27:26.828Z,59.95
2022-11-16T06:28:28.995Z,64.15
2022-11-16T06:29:30.644Z,61.58
2022-11-16T06:30:32.365Z,62.75
2022-11-16T06:31:34.024Z,72.97
2022-11-16T06:32:35.686Z,67.10
2022-11-16T06:33:37.378Z,61.13
2022-11-16T06:34:39.004Z,57.35
2022-11-16T06:35:41.123Z,61.85
2022-11-16T06:36:42.822Z,59.00
2022-11-16T06:37:44.483Z,56.70
2022-11-16T06:38:46.177Z,59.28
2022-11-16T06:39:47.842Z,59.90
2022-11-16T06:40:54.990Z,64.60
2022-11-16T06:41:56.651Z,68.22
2022-11-16T06:42:58.401Z,64.63
2022-11-16T06:44:00.114Z,67.07
2022-11-16T06:45:01.920Z,76.88
2022-11-16T06:46:03.716Z,74.65
2022-11-16T06:47:05.412Z,65.10
2022-11-16T06:48:07.225Z,70.13
2022-11-16T06:49:08.894Z,68.95
2022-11-16T06:50:10.725Z,71.82
2022-11-16T06:51:12.437Z,67.20
2022-11-16T06:52:14.128Z,63.72
2022-11-16T06:53:15.938Z,66.32
2022-11-16T06:54:17.591Z,78.35
2022-11-16T06:55:19.325Z,92.57
2022-11-16T06:56:21.038Z,79.53
2022-11-16T06:57:22.822Z,105.72
2022-11-16T06:58:24.465Z,100.63
2022-11-16T06:59:26.136Z,113.05
2022-11-16T07:00:28.147Z,117.13
2022-11-16T07:01:29.938Z,102.10
2022-11-16T07:02:31.809Z,88.80
2022-11-16T07:03:33.816Z,67.30
2022-11-16T07:04:35.440Z,52.38
2022-11-16T07:05:40.045Z,50.15
2022-11-16T07:06:41.772Z,42.65
2022-11-16T07:07:43.436Z,44.65
2022-11-16T07:08:45.280Z,40.25
2022-11-16T07:09:46.970Z,40.85
2022-11-16T07:10:48.631Z,41.13
2022-11-16T07:11:50.296Z,43.80
2022-11-16T07:12:51.947Z,40.17
2022-11-16T07:13:53.764Z,40.10
2022-11-16T07:14:55.451Z,44.28
2022-11-16T07:16:10.799Z,40.58
2022-11-16T07:17:12.450Z,38.50
2022-11-16T07:18:14.086Z,38.13
2022-11-16T07:19:15.760Z,39.83
2022-11-16T07:20:18.693Z,40.22
2022-11-16T07:21:20.392Z,44.58
2022-11-16T07:22:22.077Z,42.28
2022-11-16T07:23:23.826Z,39.03
2022-11-16T07:24:25.492Z,36.42
2022-11-16T07:25:27.243Z,41.85
2022-11-16T07:26:31.702Z,39.88
2022-11-16T07:27:33.449Z,35.90
2022-11-16T07:28:35.938Z,38.85
2022-11-16T07:29:37.877Z,44.42
2022-11-16T07:30:39.553Z,41.45
2022-11-16T07:31:41.300Z,40.10
2022-11-16T07:32:43.285Z,35.28
2022-11-16T07:33:44.974Z,41.22
2022-11-16T07:34:46.620Z,35.53
2022-11-16T07:35:48.275Z,39.92
2022-11-16T07:36:49.990Z,39.25
2022-11-16T07:37:51.735Z,36.28
2022-11-16T07:38:53.417Z,35.38
2022-11-16T07:39:55.146Z,36.72
2022-11-16T07:41:01.226Z,37.95
2022-11-16T07:42:02.877Z,31.30
2022-11-16T07:43:04.555Z,34.15
2022-11-16T07:44:10.891Z,31.13
2022-11-16T07:45:14.028Z,30.05
2022-11-16T07:46:45.798Z,34.85
2022-11-16T07:47:43.031Z,32.42
2022-11-16T07:48:45.287Z,33.35
2022-11-16T07:49:48.915Z,34.38
2022-11-16T07:50:50.595Z,33.45
2022-11-16T07:51:52.234Z,34.08
2022-11-16T07:52:55.610Z,32.40
2022-11-16T07:53:57.326Z,38.45
2022-11-16T07:54:59.086Z,34.97
2022-11-16T07:56:01.139Z,34.80
2022-11-16T07:57:02.906Z,33.20
2022-11-16T07:58:04.739Z,32.13
2022-11-16T07:59:06.615Z,33.28
2022-11-16T08:00:09.000Z,31.63
2022-11-16T08:01:15.179Z,34.85
2022-11-16T08:02:17.008Z,32.78
2022-11-16T08:03:24.382Z,32.63
2022-11-16T08:04:26.395Z,32.35
2022-11-16T08:05:28.044Z,33.30
2022-11-16T08:06:31.349Z,29.73
2022-11-16T08:07:34.498Z,34.08
2022-11-16T08:08:36.310Z,30.52
2022-11-16T08:09:39.592Z,29.95
2022-11-16T08:10:41.311Z,29.92
2022-11-16T08:11:43.051Z,31.70
2022-11-16T08:12:44.692Z,27.80
2022-11-16T08:13:46.445Z,28.58
2022-11-16T08:14:48.103Z,26.58
2022-11-16T08:15:49.849Z,29.60
2022-11-16T08:16:51.502Z,29.23
2022-11-16T08:17:53.182Z,25.90
2022-11-16T08:18:54.859Z,26.55
2022-11-16T08:19:56.546Z,27.40
2022-11-16T08:21:02.071Z,27.15
2022-11-16T08:22:03.921Z,31.52
2022-11-16T08:23:05.991Z,28.40
2022-11-16T08:24:08.090Z,28.42
2022-11-16T08:25:10.037Z,25.27
2022-11-16T08:26:17.620Z,24.88
2022-11-16T08:27:19.308Z,29.48
2022-11-16T08:28:20.960Z,26.40
2022-11-16T08:29:22.613Z,28.40
2022-11-16T08:30:24.360Z,25.23
2022-11-16T08:31:28.676Z,29.55
2022-11-16T08:32:31.157Z,30.42
2022-11-16T08:33:32.802Z,26.90
2022-11-16T08:34:34.568Z,27.30
2022-11-16T08:35:36.780Z,25.48
2022-11-16T08:36:38.458Z,26.95
2022-11-16T08:37:40.095Z,29.67
2022-11-16T08:38:41.804Z,27.38
2022-11-16T08:39:43.528Z,29.83
2022-11-16T08:40:45.627Z,31.52
2022-11-16T08:41:47.355Z,28.38
2022-11-16T08:42:49.043Z,29.73
2022-11-16T08:43:50.913Z,26.98
2022-11-16T08:44:52.667Z,31.60
2022-11-16T08:45:54.396Z,29.45
2022-11-16T08:46:56.074Z,30.65
2022-11-16T08:48:03.333Z,26.60
2022-11-16T08:49:05.628Z,29.13
2022-11-16T08:50:07.589Z,27.95
2022-11-16T08:51:20.835Z,25.45
2022-11-16T08:52:22.906Z,27.35
2022-11-16T08:53:25.132Z,27.38
2022-11-16T08:54:29.270Z,28.05
2022-11-16T08:55:30.906Z,29.83
2022-11-16T08:56:33.054Z,29.63
2022-11-16T08:57:34.742Z,27.30
2022-11-16T08:58:36.694Z,28.30
2022-11-16T08:59:38.395Z,28.63
2022-11-16T09:00:40.152Z,25.88
2022-11-16T09:01:41.879Z,28.05
2022-11-16T09:02:43.726Z,24.98
2022-11-16T09:03:46.102Z,30.27
2022-11-16T09:04:47.773Z,27.35
2022-11-16T09:05:49.431Z,26.90
2022-11-16T09:06:53.043Z,29.00
2022-11-16T09:07:54.785Z,27.55
2022-11-16T09:08:57.190Z,28.92
2022-11-16T09:09:58.830Z,24.67
2022-11-16T09:11:04.899Z,27.75
2022-11-16T09:12:06.935Z,24.20
2022-11-16T09:13:08.589Z,28.23
2022-11-16T09:14:10.296Z,27.77
2022-11-16T09:15:11.932Z,32.15
2022-11-16T09:16:16.869Z,28.80
2022-11-16T09:17:22.919Z,29.98
2022-11-16T09:18:25.396Z,30.38
2022-11-16T09:19:27.158Z,25.90
2022-11-16T09:20:29.428Z,28.48
2022-11-16T09:21:31.129Z,25.42
2022-11-16T09:22:32.866Z,27.50
2022-11-16T09:23:34.649Z,28.17
2022-11-16T09:24:36.332Z,29.70
2022-11-16T09:25:38.028Z,26.98
2022-11-16T09:26:39.684Z,31.10
2022-11-16T09:27:41.371Z,26.73
2022-11-16T09:28:43.045Z,27.20
2022-11-16T09:29:44.716Z,26.70
2022-11-16T09:30:49.654Z,28.52
2022-11-16T09:31:51.310Z,29.27
2022-11-16T09:32:53.030Z,33.63
2022-11-16T09:33:58.492Z,27.42
2022-11-16T09:35:00.248Z,29.50
2022-11-16T09:36:07.290Z,28.15
2022-11-16T09:37:08.988Z,29.30
2022-11-16T09:38:13.610Z,29.08
2022-11-16T09:39:33.254Z,29.17
2022-11-16T09:40:38.213Z,36.13
2022-11-16T09:42:02.526Z,28.05
2022-11-16T09:43:26.467Z,31.35
2022-11-16T09:44:39.472Z,30.73
2022-11-16T09:45:58.380Z,25.20
2022-11-16T09:47:01.921Z,27.50
2022-11-16T09:48:06.731Z,33.58
2022-11-16T09:49:40.821Z,26.20
2022-11-16T09:50:51.379Z,27.10
2022-11-16T09:51:59.592Z,32.70
2022-11-16T09:53:16.506Z,28.23
2022-11-16T09:54:23.170Z,27.35
2022-11-16T09:55:42.530Z,29.45
2022-11-16T09:56:47.561Z,29.85
2022-11-16T09:57:52.610Z,28.05
2022-11-16T09:58:54.190Z,28.70
2022-11-16T10:00:02.192Z,27.42
2022-11-16T10:01:14.349Z,29.75
2022-11-16T10:02:23.969Z,32.58
2022-11-16T10:03:27.762Z,27.83
2022-11-16T10:05:07.878Z,31.10
2022-11-16T10:06:21.464Z,30.50
2022-11-16T10:07:41.858Z,31.15
2022-11-16T10:08:45.682Z,30.77
2022-11-16T10:09:47.979Z,29.77
2022-11-16T10:11:23.332Z,29.33
2022-11-16T10:12:38.094Z,30.83
2022-11-16T10:13:50.473Z,28.63
2022-11-16T10:15:23.676Z,31.17
2022-11-16T10:17:01.229Z,29.85
2022-11-16T10:18:40.416Z,32.92
2022-11-16T10:20:20.423Z,29.50
2022-11-16T10:21:25.848Z,31.40
2022-11-16T10:22:30.417Z,29.33
2022-11-16T10:23:37.940Z,30.88
2022-11-16T10:24:57.931Z,30.02
2022-11-16T10:26:11.601Z,29.45
2022-11-16T10:27:39.455Z,27.92
2022-11-16T10:28:43.992Z,33.05
2022-11-16T10:29:57.347Z,28.95
2022-11-16T10:31:40.191Z,33.20
2022-11-16T10:32:53.071Z,34.10
2022-11-16T10:33:58.764Z,29.42
2022-11-16T10:35:16.063Z,29.80
2022-11-16T10:36:19.396Z,29.55
2022-11-16T10:37:23.939Z,31.95
2022-11-16T10:38:30.438Z,28.92
2022-11-16T10:39:34.167Z,31.58
2022-11-16T10:40:37.758Z,27.45
2022-11-16T10:41:50.561Z,28.15
2022-11-16T10:43:00.452Z,29.48
2022-11-16T10:44:02.762Z,26.02
2022-11-16T10:45:12.006Z,27.05
2022-11-16T10:46:31.716Z,28.73
2022-11-16T10:47:42.804Z,31.15
2022-11-16T10:50:47.560Z,30.05
2022-11-16T10:51:49.261Z,29.45
2022-11-16T10:52:50.913Z,28.38
2022-11-16T10:53:53.979Z,28.52
2022-11-16T10:54:55.696Z,28.08
2022-11-16T10:56:03.291Z,27.33
2022-11-16T10:57:14.055Z,28.92
2022-11-16T10:58:15.792Z,26.98
2022-11-16T10:59:20.582Z,30.13
2022-11-16T11:00:49.297Z,27.38
2022-11-16T11:01:56.262Z,28.27
2022-11-16T11:02:57.920Z,26.73
2022-11-16T11:04:21.336Z,30.13
2022-11-16T11:05:23.092Z,30.70
2022-11-16T11:06:26.659Z,26.33
2022-11-16T11:07:34.401Z,31.10
2022-11-16T11:08:36.118Z,33.88
2022-11-16T11:09:38.752Z,29.88
2022-11-16T11:10:42.183Z,31.15
2022-11-16T11:12:24.046Z,30.98
2022-11-16T11:13:26.931Z,30.65
2022-11-16T11:14:28.631Z,31.88
2022-11-16T11:15:30.328Z,32.53
2022-11-16T11:16:32.177Z,32.85
2022-11-16T11:17:36.121Z,33.13
2022-11-16T11:18:37.879Z,33.30
2022-11-16T11:19:39.551Z,33.50
2022-11-16T11:20:45.099Z,35.03
2022-11-16T11:21:47.584Z,31.85
2022-11-16T11:22:59.163Z,32.63
2022-11-16T11:24:37.431Z,33.97
2022-11-16T11:25:27.990Z,36.80
2022-11-16T11:26:37.204Z,37.88
2022-11-16T11:27:39.733Z,35.95
2022-11-16T11:28:48.073Z,37.53
2022-11-16T11:29:55.510Z,35.17
2022-11-16T11:31:11.688Z,39.90
2022-11-16T11:32:22.453Z,38.05
2022-11-16T11:33:38.117Z,36.38
2022-11-16T11:34:43.784Z,38.80
2022-11-16T11:35:45.473Z,38.33
2022-11-16T11:36:55.319Z,42.47
2022-11-16T11:38:07.457Z,38.67
2022-11-16T11:39:12.648Z,38.72
2022-11-16T11:40:23.384Z,40.80
2022-11-16T11:41:25.959Z,35.47
2022-11-16T11:42:28.054Z,40.40
2022-11-16T11:43:29.901Z,38.55
2022-11-16T11:44:38.697Z,39.88
2022-11-16T11:45:49.625Z,39.05
2022-11-16T11:49:01.639Z,37.35
2022-11-16T11:50:14.155Z,39.92
2022-11-16T11:51:25.558Z,41.72
2022-11-16T11:52:44.633Z,36.38
2022-11-16T11:53:59.329Z,36.65
2022-11-16T11:55:05.737Z,33.10
2022-11-16T11:56:11.733Z,36.92
2022-11-16T11:57:20.734Z,37.53
2022-11-16T11:58:28.376Z,32.30
2022-11-16T11:59:30.394Z,34.95
2022-11-16T12:00:49.356Z,30.67
2022-11-16T12:02:25.707Z,34.95
2022-11-16T12:03:45.389Z,30.65
2022-11-16T12:05:08.320Z,34.60
2022-11-16T12:06:22.888Z,36.05
2022-11-16T12:07:48.973Z,31.98
2022-11-16T12:09:09.017Z,38.63
2022-11-16T12:10:22.568Z,38.17
2022-11-16T12:11:39.437Z,33.05
2022-11-16T12:13:02.514Z,32.50
2022-11-16T12:14:29.624Z,32.20
2022-11-16T12:15:52.409Z,33.35
2022-11-16T12:17:36.453Z,33.67
2022-11-16T12:19:10.281Z,43.65
2022-11-16T12:20:26.598Z,38.65
2022-11-16T12:21:41.362Z,34.50
2022-11-16T12:23:24.879Z,34.85
2022-11-16T12:24:26.478Z,35.45
2022-11-16T12:25:39.079Z,37.92
2022-11-16T12:26:41.363Z,34.58
2022-11-16T12:28:10.803Z,33.22
2022-11-16T12:29:25.875Z,34.22
2022-11-16T12:30:27.972Z,36.00
2022-11-16T12:31:41.962Z,35.55
2022-11-16T12:32:53.068Z,32.20
2022-11-16T12:34:34.398Z,36.15
2022-11-16T12:35:49.269Z,34.75
2022-11-16T12:37:11.086Z,34.10
2022-11-16T12:38:26.650Z,37.03
2022-11-16T12:39:34.506Z,37.83
2022-11-16T12:40:41.350Z,29.88
2022-11-16T12:42:13.724Z,29.88
2022-11-16T12:43:21.280Z,31.77
2022-11-16T12:44:57.696Z,30.83
2022-11-16T12:46:20.577Z,24.83
2022-11-16T12:47:55.795Z,23.67
2022-11-16T12:49:19.029Z,27.23
2022-11-16T12:50:45.008Z,20.75
2022-11-16T12:52:12.289Z,23.10
2022-11-16T12:53:16.617Z,16.92
2022-11-16T12:54:52.445Z,16.92
2022-11-16T12:56:44.562Z,17.27
2022-11-16T12:58:02.632Z,13.65
2022-11-16T12:59:36.652Z,16.27
2022-11-16T13:01:10.640Z,15.20
2022-11-16T13:02:41.345Z,14.35
2022-11-16T13:03:49.229Z,15.63
2022-11-16T13:05:03.941Z,16.08
2022-11-16T13:06:15.275Z,17.92
2022-11-16T13:07:30.204Z,15.18
2022-11-16T13:08:41.032Z,15.23
2022-11-16T13:10:00.689Z,19.02
2022-11-16T13:11:17.442Z,19.67
2022-11-16T13:12:23.609Z,19.33
2022-11-16T13:13:38.351Z,16.85
2022-11-16T13:14:45.419Z,17.52
2022-11-16T13:15:48.136Z,19.08
2022-11-16T13:16:51.394Z,17.50
2022-11-16T13:17:59.994Z,17.73
2022-11-16T13:19:05.729Z,17.73
2022-11-16T13:20:35.300Z,16.25
2022-11-16T13:21:59.982Z,17.00
2022-11-16T13:23:26.020Z,17.95
2022-11-16T13:24:51.757Z,17.08
2022-11-16T13:26:01.754Z,17.77
2022-11-16T13:27:06.240Z,16.17
2022-11-16T13:28:10.751Z,16.40
2022-11-16T13:29:22.580Z,15.30
2022-11-16T13:30:57.663Z,15.93
2022-11-16T13:32:07.574Z,14.20
2022-11-16T13:33:28.887Z,13.90
2022-11-16T13:34:35.934Z,17.83
2022-11-16T13:35:38.770Z,18.50
2022-11-16T13:36:45.476Z,20.13
2022-11-16T13:37:48.988Z,14.43
2022-11-16T13:38:54.189Z,14.50
2022-11-16T13:39:58.861Z,15.65
2022-11-16T13:41:31.401Z,15.25
2022-11-16T13:42:43.895Z,13.70
2022-11-16T13:43:49.863Z,13.95
2022-11-16T13:44:52.328Z,16.65
2022-11-16T13:46:01.054Z,15.68
2022-11-16T13:47:05.766Z,19.30
2022-11-16T13:48:20.368Z,18.85
2022-11-16T13:49:24.737Z,13.52
2022-11-16T13:50:37.683Z,14.40
2022-11-16T13:51:39.690Z,14.82
2022-11-16T13:55:42.945Z,13.98
2022-11-16T13:56:50.247Z,17.95
2022-11-16T13:57:54.739Z,13.60
2022-11-16T13:58:57.764Z,15.23
2022-11-16T14:00:02.165Z,17.48
2022-11-16T14:01:10.924Z,15.10
2022-11-16T14:02:32.916Z,14.07
2022-11-16T14:03:41.847Z,15.30
2022-11-16T14:05:00.529Z,18.90
2022-11-16T14:06:02.190Z,15.85
2022-11-16T14:07:03.934Z,18.33
2022-11-16T14:08:37.312Z,15.23
2022-11-16T14:09:47.632Z,20.73
2022-11-16T14:10:50.113Z,20.30
2022-11-16T14:11:51.770Z,18.08
2022-11-16T14:12:54.760Z,17.88
2022-11-16T14:13:57.438Z,19.35
2022-11-16T14:15:28.631Z,18.10
2022-11-16T14:16:30.881Z,18.55
2022-11-16T14:18:12.045Z,18.35
2022-11-16T14:19:44.969Z,18.63
2022-11-16T14:20:57.191Z,22.00
2022-11-16T14:22:12.671Z,19.98
2022-11-16T14:23:32.166Z,20.48
2022-11-16T14:24:47.222Z,19.35
2022-11-16T14:26:06.950Z,19.88
2022-11-16T14:27:36.667Z,20.25
2022-11-16T14:28:54.360Z,22.25
2022-11-16T14:30:14.390Z,23.63
2022-11-16T14:31:26.708Z,18.70
2022-11-16T14:32:39.771Z,21.88
2022-11-16T14:33:50.071Z,23.02
2022-11-16T14:34:55.280Z,21.52
2022-11-16T14:35:57.267Z,21.80
2022-11-16T14:36:59.771Z,25.92
2022-11-16T14:38:06.560Z,30.10